Airfield :
LOGIN :

Register | Disclaimer

   EN    FR    IT 

 










Legend :    VFR   Marginal VFR   IFR   Intensive IFR   Very Intensive IFR
Visi :
Ceiling :
>= 8 km
>= 3000ft
5 to 8 km
1000 to 3000 ft
1500m to 5 km
500 to 1000 ft
800 to 1500m
200 to 500 ft
< 800m
< 200 ft
Symbols :   Thunderstorms  Fog  Heavy snow  Heavy precipitations  Wind > 20 kt
SIGMETs :     Misc.  Thunderstorms  Icing  Turbulence  Mountain Waves  Volcanic Ashes






- Airport Elevation : 33 ft
- IATA code : MHZ


EGUN - RAF Mildenhall

CURRENT METAR :
  • 271355Z 33014G19KT 9999 FEW030 BKN050 06/00 A2955 RMK AO2A SLPNO WND DATA ESTMD ALSTG ESTMD RVRNO

EXPIRED METARs :
  • 271255Z 33009G19KT 9999 FEW020 06/02 A2951 RMK AO2A SLPNO WND DATA ESTMD ALSTG ESTMD RVRNO
  • 271155Z 31008G14KT 9999 SCT012 BKN025 04/03 A2949 RMK AO2A SLPNO WND DATA ESTMD ALSTG ESTMD RVRNO

TAF TAF EGUN
Valid from the 27 at 12:00 until the 28 at 18:00 UTC


271200Z 2712/2818 31010G15KT 9999 SCT012 BKN020 QNH2948INS
BECMG 2713/2714 30015G25KT 9999 FEW025 QNH2950INS
BECMG 2721/2722 26012KT 9999 FEW020 QNH2984INS
BECMG 2811/2812 20020G30KT 8000 -SHRA OVC012 510003 QNH2934INS TX07/2715Z TN00/2805Z



MET'MAP, your aeronautical weather chart ! - Copyright ORBIFLY December 2007 - Disclaimer

ORBIFLY MET'MAP TEAM :

Programming & Development : Alexandra Zaïnal
Concept & original design : Baudouin d'Aumeries
Assistance for programming : Marc-Olivier Méhu
Technical & hardware support : Manuel Goepfert

Contact : metmap@orbifly.com




SOURCES & CREDITS :

   NOAA